createdAt,value
2018-03-21T00:01:22.291Z,73.70
2018-03-21T00:03:48.521Z,73.80
2018-03-21T00:06:14.734Z,74.20
2018-03-21T00:08:40.993Z,74.10
2018-03-21T00:11:07.210Z,73.90
2018-03-21T00:13:33.434Z,72.80
2018-03-21T00:15:59.683Z,72.00
2018-03-21T00:18:25.888Z,71.90
2018-03-21T00:20:52.111Z,72.30
2018-03-21T00:23:18.334Z,72.20
2018-03-21T00:25:44.884Z,72.40
2018-03-21T00:28:11.085Z,74.10
2018-03-21T00:30:37.292Z,73.10
2018-03-21T00:33:03.520Z,73.60
2018-03-21T00:35:29.712Z,73.30
2018-03-21T00:37:55.941Z,74.20
2018-03-21T00:40:22.177Z,74.90
2018-03-21T00:42:48.436Z,75.30
2018-03-21T00:45:14.624Z,74.40
2018-03-21T00:47:40.888Z,76.30
2018-03-21T00:50:07.089Z,76.40
2018-03-21T00:52:33.334Z,76.10
2018-03-21T00:54:59.579Z,76.60
2018-03-21T00:57:25.817Z,77.10
2018-03-21T00:59:52.087Z,76.20
2018-03-21T01:02:18.591Z,75.80
2018-03-21T01:04:44.788Z,75.70
2018-03-21T01:07:11.036Z,75.90
2018-03-21T01:09:37.257Z,75.90
2018-03-21T01:12:03.508Z,75.30
2018-03-21T01:14:29.733Z,74.40
2018-03-21T01:16:55.968Z,75.10
2018-03-21T01:19:22.174Z,74.80
2018-03-21T01:21:48.386Z,74.20
2018-03-21T01:24:14.648Z,74.40
2018-03-21T01:26:40.891Z,73.40
2018-03-21T01:29:07.982Z,73.00
2018-03-21T01:31:34.242Z,73.50
2018-03-21T01:34:00.487Z,73.00
2018-03-21T01:36:26.756Z,73.50
2018-03-21T01:38:53.079Z,72.30
2018-03-21T01:41:19.333Z,71.80
2018-03-21T01:43:45.605Z,71.40
2018-03-21T01:46:11.858Z,71.40
2018-03-21T01:48:38.375Z,71.90
2018-03-21T01:51:04.602Z,71.20
2018-03-21T01:53:30.797Z,71.90
2018-03-21T01:55:57.034Z,71.10
2018-03-21T01:58:23.254Z,70.00
2018-03-21T02:00:49.469Z,70.80
2018-03-21T02:03:15.687Z,71.70
2018-03-21T02:05:41.916Z,71.00
2018-03-21T02:08:08.112Z,71.60
2018-03-21T02:10:34.330Z,70.20
2018-03-21T02:13:00.565Z,69.90
2018-03-21T02:15:26.827Z,70.10
2018-03-21T02:17:53.047Z,70.00
2018-03-21T02:20:20.093Z,69.80
2018-03-21T02:22:46.307Z,69.40
2018-03-21T02:25:12.941Z,69.40
2018-03-21T02:27:39.870Z,69.20
2018-03-21T02:30:06.460Z,69.00
2018-03-21T02:32:32.665Z,69.00
2018-03-21T02:34:58.915Z,68.30
2018-03-21T02:37:25.118Z,69.70
2018-03-21T02:39:51.326Z,69.40
2018-03-21T02:42:17.554Z,70.30
2018-03-21T02:44:43.801Z,70.10
2018-03-21T02:47:10.006Z,69.80
2018-03-21T02:49:36.244Z,68.40
2018-03-21T02:52:02.502Z,68.80
2018-03-21T02:54:28.839Z,69.60
2018-03-21T02:56:55.070Z,69.00
2018-03-21T02:59:21.306Z,70.20
2018-03-21T03:01:47.544Z,69.80
2018-03-21T03:04:13.759Z,70.30
2018-03-21T03:06:39.973Z,70.00
2018-03-21T03:09:08.018Z,68.60
2018-03-21T03:11:34.212Z,69.60
2018-03-21T03:14:00.439Z,68.90
2018-03-21T03:16:26.648Z,69.20
2018-03-21T03:18:52.849Z,69.10
2018-03-21T03:21:19.110Z,68.20
2018-03-21T03:23:45.348Z,66.80
2018-03-21T03:26:11.577Z,67.40
2018-03-21T03:28:37.810Z,67.40
2018-03-21T03:31:04.040Z,67.60
2018-03-21T03:33:30.253Z,67.40
2018-03-21T03:35:56.470Z,67.80
2018-03-21T03:38:22.746Z,67.30
2018-03-21T03:40:49.341Z,67.20
2018-03-21T03:43:15.590Z,67.20
2018-03-21T03:45:41.815Z,66.60
2018-03-21T03:48:08.012Z,66.30
2018-03-21T03:50:34.258Z,66.60
2018-03-21T03:53:00.491Z,67.30
2018-03-21T03:55:26.715Z,66.80
2018-03-21T03:57:53.209Z,67.80
2018-03-21T04:00:19.413Z,68.00
2018-03-21T04:02:46.007Z,67.70
2018-03-21T04:05:12.271Z,67.70
2018-03-21T04:07:38.862Z,68.90
2018-03-21T04:10:06.114Z,68.90
2018-03-21T04:12:32.333Z,69.80
2018-03-21T04:14:58.546Z,68.50
2018-03-21T04:17:24.767Z,68.60
2018-03-21T04:19:51.050Z,68.30
2018-03-21T04:22:17.273Z,68.30
2018-03-21T04:24:43.495Z,69.00
2018-03-21T04:27:09.730Z,68.60
2018-03-21T04:29:35.960Z,70.00
2018-03-21T04:32:02.189Z,70.70
2018-03-21T04:34:28.416Z,70.90
2018-03-21T04:36:54.700Z,71.90
2018-03-21T04:39:20.968Z,71.30
2018-03-21T04:41:47.225Z,70.30
2018-03-21T04:44:13.805Z,69.90
2018-03-21T04:46:40.611Z,69.90
2018-03-21T04:49:07.242Z,68.70
2018-03-21T04:51:36.180Z,68.80
2018-03-21T04:54:02.471Z,68.80
2018-03-21T04:56:28.733Z,69.00
2018-03-21T04:58:55.001Z,70.10
2018-03-21T05:01:21.212Z,70.20
2018-03-21T05:03:47.721Z,70.20
2018-03-21T05:06:13.958Z,68.70
2018-03-21T05:08:40.197Z,69.10
2018-03-21T05:11:06.478Z,67.80
2018-03-21T05:13:32.698Z,68.40
2018-03-21T05:15:59.722Z,67.90
2018-03-21T05:18:26.262Z,68.30
2018-03-21T05:20:52.519Z,67.30
2018-03-21T05:23:18.709Z,68.90
2018-03-21T05:25:44.967Z,68.60
2018-03-21T05:28:11.560Z,68.30
2018-03-21T05:30:37.849Z,68.30
2018-03-21T05:33:04.095Z,68.40
2018-03-21T05:35:30.316Z,68.70
2018-03-21T05:37:56.527Z,68.90
2018-03-21T05:40:22.792Z,69.30
2018-03-21T05:42:49.293Z,69.40
2018-03-21T05:45:15.522Z,69.40
2018-03-21T05:47:41.806Z,69.70
2018-03-21T05:50:08.065Z,69.70
2018-03-21T05:52:35.657Z,70.90
2018-03-21T05:55:01.916Z,70.90
2018-03-21T05:57:28.143Z,69.00
2018-03-21T05:59:54.403Z,70.00
2018-03-21T06:02:20.998Z,69.40
2018-03-21T06:04:47.221Z,69.50
2018-03-21T06:07:13.448Z,70.00
2018-03-21T06:09:39.694Z,68.70
2018-03-21T06:12:05.940Z,68.50
2018-03-21T06:14:32.196Z,68.10
2018-03-21T06:16:58.572Z,68.00
2018-03-21T06:19:24.793Z,68.00
2018-03-21T06:21:51.029Z,68.10
2018-03-21T06:24:17.263Z,68.00
2018-03-21T06:26:43.471Z,67.10
2018-03-21T06:29:10.168Z,67.30
2018-03-21T06:31:36.766Z,67.20
2018-03-21T06:34:03.053Z,67.20
2018-03-21T06:36:29.339Z,68.30
2018-03-21T06:38:55.553Z,67.60
2018-03-21T06:41:21.834Z,67.90
2018-03-21T06:43:48.088Z,66.60
2018-03-21T06:46:14.329Z,66.80
2018-03-21T06:48:40.555Z,66.70
2018-03-21T06:51:07.227Z,66.40
2018-03-21T06:53:40.601Z,66.10
2018-03-21T06:56:06.864Z,66.10
2018-03-21T06:58:33.470Z,65.80
2018-03-21T07:00:59.712Z,65.80
2018-03-21T07:03:25.950Z,65.90
2018-03-21T07:05:52.556Z,65.00
2018-03-21T07:08:18.771Z,65.00
2018-03-21T07:10:45.008Z,64.40
2018-03-21T07:13:11.248Z,64.90
2018-03-21T07:15:49.833Z,65.70
2018-03-21T07:18:16.082Z,66.40
2018-03-21T07:20:42.289Z,66.00
2018-03-21T07:23:09.291Z,66.60
2018-03-21T07:25:35.908Z,64.80
2018-03-21T07:28:02.168Z,64.80
2018-03-21T07:30:29.060Z,63.70
2018-03-21T07:32:55.285Z,63.70
2018-03-21T07:35:21.498Z,63.50
2018-03-21T07:37:47.721Z,62.90
2018-03-21T07:40:13.950Z,63.20
2018-03-21T07:42:40.176Z,62.70
2018-03-21T07:45:06.468Z,61.10
2018-03-21T07:47:33.504Z,62.30
2018-03-21T07:49:59.723Z,62.20
2018-03-21T07:52:25.953Z,62.90
2018-03-21T07:54:52.162Z,62.60
2018-03-21T07:57:18.393Z,62.50
2018-03-21T07:59:44.666Z,61.70
2018-03-21T08:02:11.302Z,62.40
2018-03-21T08:04:37.948Z,62.00
2018-03-21T08:07:04.200Z,62.00
2018-03-21T08:09:30.484Z,62.20
2018-03-21T08:11:57.113Z,61.50
2018-03-21T08:14:23.357Z,61.50
2018-03-21T08:16:49.941Z,62.00
2018-03-21T08:19:16.437Z,62.00
2018-03-21T08:21:43.689Z,60.70
2018-03-21T08:24:10.319Z,60.30
2018-03-21T08:26:36.946Z,59.80
2018-03-21T08:29:03.978Z,59.80
2018-03-21T08:31:31.113Z,61.50
2018-03-21T08:33:57.362Z,60.40
2018-03-21T08:36:23.559Z,59.70
2018-03-21T08:38:49.765Z,59.30
2018-03-21T08:41:16.003Z,61.20
2018-03-21T08:43:42.343Z,60.70
2018-03-21T08:46:08.565Z,60.30
2018-03-21T08:48:34.829Z,59.80
2018-03-21T08:51:01.075Z,59.30
2018-03-21T08:53:27.706Z,59.40
2018-03-21T08:55:53.944Z,59.40
2018-03-21T08:58:20.516Z,59.30
2018-03-21T09:00:46.813Z,59.30
2018-03-21T09:03:13.448Z,59.30
2018-03-21T09:05:40.047Z,59.30
2018-03-21T09:08:06.296Z,59.30
2018-03-21T09:10:32.512Z,59.50
2018-03-21T09:12:58.752Z,58.20
2018-03-21T09:15:24.996Z,58.30
2018-03-21T09:17:51.598Z,58.20
2018-03-21T09:20:17.840Z,58.20
2018-03-21T09:22:44.088Z,59.20
2018-03-21T09:25:10.704Z,59.50
2018-03-21T09:27:36.944Z,59.50
2018-03-21T09:30:03.599Z,59.40
2018-03-21T09:32:30.197Z,59.30
2018-03-21T09:34:56.712Z,59.30
2018-03-21T09:37:23.040Z,57.60
2018-03-21T09:39:49.242Z,59.60
2018-03-21T09:42:15.498Z,57.30
2018-03-21T09:44:41.734Z,57.40
2018-03-21T09:47:07.998Z,58.00
2018-03-21T09:49:34.640Z,57.20
2018-03-21T09:52:01.242Z,56.00
2018-03-21T09:54:27.501Z,56.00
2018-03-21T09:56:54.077Z,55.30
2018-03-21T09:59:20.291Z,55.30
2018-03-21T10:01:46.565Z,54.90
2018-03-21T10:04:12.796Z,55.70
2018-03-21T10:06:39.017Z,56.30
2018-03-21T10:09:05.307Z,53.40
2018-03-21T10:11:31.553Z,51.20
2018-03-21T10:13:58.773Z,50.60
2018-03-21T10:16:25.372Z,46.80
2018-03-21T10:18:51.576Z,46.70
2018-03-21T10:21:17.798Z,45.10
2018-03-21T10:23:44.069Z,45.60
2018-03-21T10:26:10.254Z,43.90
2018-03-21T10:28:36.507Z,44.60
2018-03-21T10:31:02.721Z,41.10
2018-03-21T10:33:28.965Z,38.00
2018-03-21T10:35:55.545Z,35.80
2018-03-21T10:38:21.827Z,32.60
2018-03-21T10:40:48.054Z,32.90
2018-03-21T10:43:14.607Z,27.80
2018-03-21T10:45:40.840Z,25.50
2018-03-21T10:48:07.072Z,21.30
2018-03-21T10:50:33.347Z,19.60
2018-03-21T10:52:59.555Z,20.00
2018-03-21T10:55:25.779Z,21.00
2018-03-21T10:57:52.042Z,22.30
2018-03-21T11:00:18.291Z,19.80
2018-03-21T11:02:50.584Z,16.40
2018-03-21T11:05:17.220Z,15.10
2018-03-21T11:07:43.489Z,15.10
2018-03-21T11:10:10.074Z,14.00
2018-03-21T11:12:36.336Z,14.00
2018-03-21T11:15:02.589Z,13.10
2018-03-21T11:17:28.831Z,13.40
2018-03-21T11:19:55.043Z,13.30
2018-03-21T11:22:22.138Z,13.00
2018-03-21T11:24:48.761Z,12.10
2018-03-21T11:27:14.983Z,12.10
2018-03-21T11:29:41.209Z,12.60
2018-03-21T11:32:07.487Z,12.10
2018-03-21T11:34:34.118Z,13.40
2018-03-21T11:37:00.741Z,12.30
2018-03-21T11:39:27.350Z,13.70
2018-03-21T11:41:53.582Z,13.70
2018-03-21T11:44:19.779Z,15.20
2018-03-21T11:46:46.022Z,17.90
2018-03-21T11:49:12.276Z,19.40
2018-03-21T11:51:38.498Z,22.30
2018-03-21T11:54:04.731Z,24.10
2018-03-21T11:56:30.943Z,26.70
2018-03-21T11:58:57.152Z,27.80
2018-03-21T12:01:23.406Z,30.50
2018-03-21T12:03:49.675Z,32.00
2018-03-21T12:06:16.272Z,30.10
2018-03-21T12:08:42.960Z,30.10
2018-03-21T12:11:09.542Z,30.10
2018-03-21T12:13:35.814Z,30.20
2018-03-21T12:16:02.858Z,29.20
2018-03-21T12:18:29.433Z,28.60
2018-03-21T12:20:55.646Z,28.60
2018-03-21T12:23:21.919Z,21.80
2018-03-21T12:25:48.203Z,18.70
2018-03-21T12:28:14.444Z,17.00
2018-03-21T12:30:41.467Z,15.80
2018-03-21T12:33:07.685Z,15.30
2018-03-21T12:35:34.276Z,13.00
2018-03-21T12:38:02.407Z,13.00
2018-03-21T12:40:28.636Z,13.00
2018-03-21T12:42:54.909Z,12.40
2018-03-21T12:45:21.164Z,12.90
2018-03-21T12:47:48.278Z,13.10
2018-03-21T12:50:14.526Z,12.20
2018-03-21T12:52:42.439Z,13.00
2018-03-21T12:55:08.666Z,14.80
2018-03-21T12:57:35.696Z,14.80
2018-03-21T13:00:02.337Z,16.00
2018-03-21T13:02:28.950Z,16.10
2018-03-21T13:04:55.172Z,16.10
2018-03-21T13:07:21.443Z,17.30
2018-03-21T13:09:47.716Z,18.30
2018-03-21T13:12:13.917Z,17.90
2018-03-21T13:14:40.168Z,18.80
2018-03-21T13:17:06.375Z,20.10
2018-03-21T13:19:32.613Z,21.40
2018-03-21T13:21:58.859Z,21.90
2018-03-21T13:24:25.083Z,23.50
2018-03-21T13:26:52.090Z,23.70
2018-03-21T13:29:18.336Z,23.30
2018-03-21T13:31:44.575Z,22.00
2018-03-21T13:34:10.857Z,21.90
2018-03-21T13:36:39.048Z,20.70
2018-03-21T13:39:05.342Z,21.90
2018-03-21T13:41:31.570Z,21.80
2018-03-21T13:43:57.838Z,22.40
2018-03-21T13:46:24.100Z,22.10
2018-03-21T13:48:50.347Z,21.10
2018-03-21T13:51:16.602Z,23.60
2018-03-21T13:53:43.240Z,22.80
2018-03-21T13:56:09.461Z,22.80
2018-03-21T13:58:36.080Z,24.80
2018-03-21T14:01:02.333Z,24.80
2018-03-21T14:03:28.908Z,24.60
2018-03-21T14:05:55.209Z,24.50
2018-03-21T14:08:21.466Z,23.30
2018-03-21T14:10:47.752Z,23.50
2018-03-21T14:13:14.415Z,24.80
2018-03-21T14:15:40.687Z,24.80
2018-03-21T14:18:06.935Z,25.20
2018-03-21T14:20:33.206Z,25.10
2018-03-21T14:22:59.453Z,24.00
2018-03-21T14:25:25.682Z,23.90
2018-03-21T14:27:51.965Z,26.10
2018-03-21T14:30:19.356Z,27.50
2018-03-21T14:32:45.572Z,27.50
2018-03-21T14:35:11.840Z,25.30
2018-03-21T14:37:38.072Z,24.50
2018-03-21T14:40:04.343Z,25.70
2018-03-21T14:42:30.605Z,25.10
2018-03-21T14:44:56.907Z,24.10
2018-03-21T14:47:23.157Z,25.60
2018-03-21T14:49:49.373Z,26.60
2018-03-21T14:52:15.632Z,24.70
2018-03-21T14:54:41.888Z,24.30
2018-03-21T14:57:08.142Z,24.70
2018-03-21T14:59:34.714Z,23.20
2018-03-21T15:02:00.958Z,23.20
2018-03-21T15:04:27.229Z,24.30
2018-03-21T15:06:53.832Z,25.20
2018-03-21T15:09:20.086Z,25.20
2018-03-21T15:11:46.286Z,25.80
2018-03-21T15:14:12.548Z,25.90
2018-03-21T15:16:39.616Z,26.40
2018-03-21T15:19:05.876Z,26.90
2018-03-21T15:21:32.121Z,25.20
2018-03-21T15:24:00.150Z,26.70
2018-03-21T15:26:26.404Z,26.10
2018-03-21T15:28:52.667Z,26.60
2018-03-21T15:31:18.914Z,25.60
2018-03-21T15:33:45.520Z,25.70
2018-03-21T15:36:12.427Z,25.70
2018-03-21T15:38:38.641Z,26.50
2018-03-21T15:41:04.902Z,25.70
2018-03-21T15:43:31.131Z,25.90
2018-03-21T15:45:57.353Z,26.40
2018-03-21T15:48:23.578Z,26.60
2018-03-21T15:50:50.161Z,26.10
2018-03-21T15:53:16.767Z,27.50
2018-03-21T15:55:42.974Z,27.50
2018-03-21T15:58:09.212Z,27.30
2018-03-21T16:00:35.543Z,26.90
2018-03-21T16:03:01.771Z,26.80
2018-03-21T16:05:28.036Z,27.40
2018-03-21T16:07:54.285Z,28.60
2018-03-21T16:10:20.523Z,28.40
2018-03-21T16:12:46.800Z,28.30
2018-03-21T16:15:13.004Z,29.20
2018-03-21T16:17:39.241Z,30.60
2018-03-21T16:20:05.802Z,30.10
2018-03-21T16:22:32.022Z,30.20
2018-03-21T16:24:58.233Z,30.40
2018-03-21T16:27:24.490Z,31.90
2018-03-21T16:29:50.756Z,31.30
2018-03-21T16:32:16.970Z,31.10
2018-03-21T16:34:43.225Z,33.60
2018-03-21T16:37:09.473Z,31.70
2018-03-21T16:39:35.753Z,33.50
2018-03-21T16:42:02.373Z,33.20
2018-03-21T16:44:28.659Z,33.20
2018-03-21T16:46:54.955Z,34.50
2018-03-21T16:49:21.200Z,33.50
2018-03-21T16:51:47.427Z,32.60
2018-03-21T16:54:14.028Z,33.10
2018-03-21T16:56:40.234Z,34.90
2018-03-21T16:59:06.495Z,35.50
2018-03-21T17:01:33.115Z,34.70
2018-03-21T17:04:06.305Z,34.70
2018-03-21T17:06:32.568Z,34.30
2018-03-21T17:08:58.823Z,34.80
2018-03-21T17:11:26.059Z,34.00
2018-03-21T17:13:52.344Z,34.60
2018-03-21T17:16:18.608Z,37.00
2018-03-21T17:18:45.244Z,37.70
2018-03-21T17:21:11.894Z,37.00
2018-03-21T17:23:38.920Z,37.00
2018-03-21T17:26:05.530Z,36.50
2018-03-21T17:28:31.760Z,36.50
2018-03-21T17:30:57.982Z,37.70
2018-03-21T17:33:24.238Z,38.50
2018-03-21T17:35:50.842Z,37.90
2018-03-21T17:38:17.040Z,37.80
2018-03-21T17:40:43.282Z,38.60
2018-03-21T17:43:09.594Z,38.70
2018-03-21T17:45:35.824Z,38.30
2018-03-21T17:48:02.098Z,41.40
2018-03-21T17:50:28.696Z,40.10
2018-03-21T17:52:54.989Z,40.10
2018-03-21T17:55:21.303Z,40.70
2018-03-21T17:57:48.890Z,41.30
2018-03-21T18:00:15.683Z,41.30
2018-03-21T18:02:41.950Z,41.80
2018-03-21T18:05:08.206Z,42.30
2018-03-21T18:07:34.489Z,41.40
2018-03-21T18:10:00.741Z,40.80
2018-03-21T18:12:26.994Z,41.90
2018-03-21T18:14:53.247Z,41.50
2018-03-21T18:17:19.489Z,43.20
2018-03-21T18:19:45.765Z,43.30
2018-03-21T18:22:12.034Z,42.50
2018-03-21T18:24:38.307Z,43.20
2018-03-21T18:27:04.556Z,44.50
2018-03-21T18:29:30.790Z,44.10
2018-03-21T18:31:57.025Z,44.70
2018-03-21T18:34:23.278Z,43.20
2018-03-21T18:36:49.518Z,44.70
2018-03-21T18:39:15.772Z,45.00
2018-03-21T18:41:42.042Z,45.70
2018-03-21T18:44:08.277Z,46.10
2018-03-21T18:46:34.509Z,48.60
2018-03-21T18:49:00.789Z,49.00
2018-03-21T18:51:27.419Z,48.20
2018-03-21T18:53:53.719Z,48.20
2018-03-21T18:56:20.083Z,48.90
2018-03-21T18:58:46.729Z,49.50
2018-03-21T19:01:13.336Z,49.10
2018-03-21T19:03:39.610Z,49.10
2018-03-21T19:06:05.834Z,50.10
2018-03-21T19:08:32.080Z,49.80
2018-03-21T19:10:58.407Z,50.00
2018-03-21T19:13:24.660Z,50.10
2018-03-21T19:15:50.909Z,51.00
2018-03-21T19:18:17.436Z,52.10
2018-03-21T19:20:43.688Z,52.20
2018-03-21T19:23:16.960Z,52.10
2018-03-21T19:25:43.255Z,52.80
2018-03-21T19:28:09.559Z,53.60
2018-03-21T19:30:35.793Z,54.50
2018-03-21T19:33:02.076Z,54.90
2018-03-21T19:35:28.437Z,55.50
2018-03-21T19:37:55.102Z,55.10
2018-03-21T19:40:22.130Z,55.10
2018-03-21T19:42:48.424Z,55.20
2018-03-21T19:45:14.664Z,54.90
2018-03-21T19:47:40.931Z,55.20
2018-03-21T19:50:07.258Z,55.90
2018-03-21T19:52:34.330Z,56.20
2018-03-21T19:55:00.624Z,56.80
2018-03-21T19:57:26.889Z,57.10
2018-03-21T19:59:53.123Z,57.30
2018-03-21T20:02:19.375Z,57.00
2018-03-21T20:04:45.666Z,57.50
2018-03-21T20:07:11.932Z,57.90
2018-03-21T20:09:38.465Z,57.90
2018-03-21T20:12:04.727Z,57.50
2018-03-21T20:14:31.324Z,58.10
2018-03-21T20:16:57.610Z,58.10
2018-03-21T20:19:23.848Z,58.60
2018-03-21T20:21:50.084Z,58.70
2018-03-21T20:24:16.404Z,59.10
2018-03-21T20:26:42.632Z,59.90
2018-03-21T20:29:08.914Z,59.10
2018-03-21T20:31:35.167Z,58.80
2018-03-21T20:34:01.693Z,58.80
2018-03-21T20:36:28.304Z,60.30
2018-03-21T20:38:54.929Z,59.10
2018-03-21T20:41:21.281Z,59.10
2018-03-21T20:43:47.607Z,59.30
2018-03-21T20:46:13.854Z,59.60
2018-03-21T20:48:40.474Z,59.60
2018-03-21T20:51:07.120Z,59.70
2018-03-21T20:53:33.363Z,59.70
2018-03-21T20:55:59.990Z,60.60
2018-03-21T20:58:26.563Z,60.60
2018-03-21T21:00:52.806Z,60.60
2018-03-21T21:03:19.051Z,60.70
2018-03-21T21:05:45.367Z,60.80
2018-03-21T21:08:11.675Z,61.00
2018-03-21T21:10:38.659Z,61.20
2018-03-21T21:13:04.898Z,60.90
2018-03-21T21:15:32.161Z,61.30
2018-03-21T21:17:58.363Z,61.80
2018-03-21T21:20:24.649Z,62.00
2018-03-21T21:22:50.899Z,61.80
2018-03-21T21:25:17.210Z,62.10
2018-03-21T21:27:43.456Z,62.40
2018-03-21T21:30:09.774Z,62.70
2018-03-21T21:32:36.107Z,62.70
2018-03-21T21:35:02.331Z,62.50
2018-03-21T21:37:29.343Z,62.60
2018-03-21T21:39:55.552Z,64.00
2018-03-21T21:42:21.864Z,63.50
2018-03-21T21:44:48.405Z,63.30
2018-03-21T21:47:14.612Z,63.40
2018-03-21T21:49:40.885Z,63.40
2018-03-21T21:52:08.086Z,63.60
2018-03-21T21:54:34.318Z,63.70
2018-03-21T21:57:00.505Z,63.90
2018-03-21T21:59:26.782Z,64.10
2018-03-21T22:01:53.023Z,63.60
2018-03-21T22:04:19.236Z,63.30
2018-03-21T22:06:45.591Z,63.60
2018-03-21T22:09:11.846Z,63.60
2018-03-21T22:11:38.061Z,63.50
2018-03-21T22:14:04.315Z,63.40
2018-03-21T22:16:30.563Z,64.30
2018-03-21T22:18:56.784Z,64.30
2018-03-21T22:21:23.027Z,64.20
2018-03-21T22:23:49.247Z,64.20
2018-03-21T22:26:15.472Z,64.30
2018-03-21T22:28:41.702Z,64.70
2018-03-21T22:31:07.920Z,65.00
2018-03-21T22:33:34.134Z,65.40
2018-03-21T22:36:00.731Z,65.10
2018-03-21T22:38:26.931Z,65.10
2018-03-21T22:40:53.130Z,64.80
2018-03-21T22:43:19.732Z,65.40
2018-03-21T22:45:45.941Z,65.40
2018-03-21T22:48:12.164Z,65.60
2018-03-21T22:50:38.690Z,65.30
2018-03-21T22:53:04.875Z,65.60
2018-03-21T22:55:31.079Z,65.00
2018-03-21T22:57:57.306Z,65.70
2018-03-21T23:00:23.506Z,65.40
2018-03-21T23:02:49.700Z,65.50
2018-03-21T23:05:16.411Z,65.40
2018-03-21T23:07:42.651Z,65.90
2018-03-21T23:10:09.272Z,66.50
2018-03-21T23:12:35.518Z,66.50
2018-03-21T23:15:02.119Z,67.00
2018-03-21T23:17:28.377Z,67.00
2018-03-21T23:19:55.006Z,67.20
2018-03-21T23:22:22.150Z,67.20
2018-03-21T23:24:48.395Z,67.00
2018-03-21T23:27:14.640Z,67.60
2018-03-21T23:29:40.918Z,67.50
2018-03-21T23:32:07.124Z,67.60
2018-03-21T23:34:33.387Z,67.00
2018-03-21T23:36:59.595Z,66.90
2018-03-21T23:39:25.793Z,67.30
2018-03-21T23:41:52.027Z,67.20
2018-03-21T23:44:18.246Z,67.10
2018-03-21T23:46:44.466Z,67.40
2018-03-21T23:49:10.960Z,67.80
2018-03-21T23:51:37.174Z,67.80
2018-03-21T23:54:03.402Z,67.80
2018-03-21T23:56:29.638Z,67.50
2018-03-21T23:58:55.847Z,68.20
